createdAt,value
2019-03-30T00:48:50.287Z,29.50
2019-03-30T00:53:58.573Z,29.50
2019-03-30T00:59:06.770Z,29.60
2019-03-30T01:04:14.634Z,29.60
2019-03-30T01:09:24.002Z,29.60
2019-03-30T01:14:35.298Z,29.70
2019-03-30T01:19:43.044Z,29.70
2019-03-30T01:24:51.545Z,30.00
2019-03-30T01:30:22.578Z,30.10
2019-03-30T01:35:19.631Z,30.10
2019-03-30T01:40:27.445Z,30.10
2019-03-30T01:45:35.097Z,30.10
2019-03-30T01:50:42.706Z,30.30
2019-03-30T01:56:20.073Z,30.40
2019-03-30T02:01:29.293Z,30.40
2019-03-30T02:29:01.105Z,30.80
2019-03-30T02:34:11.239Z,31.10
2019-03-30T02:39:35.342Z,31.00
2019-03-30T02:44:45.206Z,31.00
2019-03-30T02:49:53.406Z,31.30
2019-03-30T02:55:01.548Z,31.20
2019-03-30T03:05:51.120Z,31.50
2019-03-30T03:10:59.173Z,31.60
2019-03-30T03:16:07.316Z,31.70
2019-03-30T03:21:15.522Z,31.90
2019-03-30T03:26:23.462Z,32.10
2019-03-30T03:31:31.445Z,32.10
2019-03-30T03:36:39.713Z,32.30
2019-03-30T03:41:47.747Z,32.30
2019-03-30T03:46:56.876Z,32.60
2019-03-30T03:52:05.018Z,32.70
2019-03-30T03:57:13.263Z,32.90
2019-03-30T04:02:21.153Z,33.00
2019-03-30T04:07:28.867Z,33.20
2019-03-30T04:12:37.726Z,33.10
2019-03-30T04:17:45.421Z,33.20
2019-03-30T04:22:54.193Z,33.40
2019-03-30T04:28:01.773Z,33.60
2019-03-30T04:33:09.774Z,33.70
2019-03-30T04:38:18.450Z,33.90
2019-03-30T04:43:26.421Z,34.10
2019-03-30T04:48:34.283Z,34.20
2019-03-30T04:53:42.375Z,34.30
2019-03-30T04:58:50.077Z,34.40
2019-03-30T05:03:57.659Z,34.40
2019-03-30T05:09:05.620Z,34.80
2019-03-30T05:14:13.657Z,34.90
2019-03-30T05:19:21.326Z,34.80
2019-03-30T05:24:28.987Z,35.00
2019-03-30T05:29:36.496Z,35.20
2019-03-30T05:34:44.272Z,35.40
2019-03-30T05:39:51.914Z,35.60
2019-03-30T05:44:59.848Z,35.70
2019-03-30T05:50:08.706Z,35.80
2019-03-30T05:55:17.031Z,35.90
2019-03-30T06:00:25.768Z,36.00
2019-03-30T06:05:33.629Z,36.10
2019-03-30T06:10:41.379Z,36.30
2019-03-30T06:15:49.531Z,36.50
2019-03-30T06:20:57.062Z,36.60
2019-03-30T06:26:05.018Z,36.70
2019-03-30T06:31:13.026Z,36.70
2019-03-30T06:36:21.218Z,36.80
2019-03-30T06:41:28.929Z,37.00
2019-03-30T06:46:39.531Z,36.90
2019-03-30T06:51:48.778Z,36.90
2019-03-30T06:56:57.106Z,37.00
2019-03-30T07:02:16.033Z,37.30
2019-03-30T07:07:24.752Z,37.30
2019-03-30T07:12:32.580Z,37.40
2019-03-30T07:17:42.904Z,37.50
2019-03-30T07:22:51.629Z,37.40
2019-03-30T07:28:19.738Z,37.40
2019-03-30T07:33:27.657Z,37.30
2019-03-30T07:38:35.457Z,37.10
2019-03-30T07:43:43.432Z,37.00
2019-03-30T07:48:51.708Z,37.00
2019-03-30T07:53:59.494Z,37.00
2019-03-30T07:59:07.498Z,36.90
2019-03-30T08:04:15.326Z,37.20
2019-03-30T08:09:23.324Z,37.20
2019-03-30T08:14:31.460Z,37.10
2019-03-30T08:19:59.363Z,37.00
2019-03-30T08:25:27.280Z,37.10
2019-03-30T08:30:35.984Z,37.10
2019-03-30T08:35:44.631Z,37.10
2019-03-30T08:40:53.688Z,37.00
2019-03-30T08:46:01.698Z,37.10
2019-03-30T08:51:09.553Z,37.50
2019-03-30T08:56:17.117Z,37.00
2019-03-30T09:01:25.391Z,37.00
2019-03-30T09:06:33.385Z,37.10
2019-03-30T09:11:43.455Z,37.10
2019-03-30T09:16:50.077Z,37.30
2019-03-30T09:21:58.722Z,37.10
2019-03-30T09:27:07.630Z,37.40
2019-03-30T09:32:16.044Z,37.50
2019-03-30T09:37:24.439Z,37.10
2019-03-30T09:42:32.232Z,37.30
2019-03-30T09:47:41.940Z,37.40
2019-03-30T09:52:50.483Z,37.40
2019-03-30T09:57:59.611Z,37.40
2019-03-30T10:03:07.934Z,37.00
2019-03-30T10:08:16.505Z,37.10
2019-03-30T10:13:24.944Z,37.20
2019-03-30T10:18:33.524Z,37.30
2019-03-30T10:23:41.617Z,37.20
2019-03-30T10:28:49.306Z,37.10
2019-03-30T10:33:56.996Z,37.10
2019-03-30T10:39:05.406Z,37.10
2019-03-30T10:44:14.021Z,37.20
2019-03-30T10:49:23.702Z,37.20
2019-03-30T10:54:31.866Z,37.10
2019-03-30T10:59:39.623Z,37.00
2019-03-30T11:04:47.669Z,36.90
2019-03-30T11:09:57.738Z,36.90
2019-03-30T11:15:06.864Z,36.80
2019-03-30T11:20:15.261Z,36.60
2019-03-30T11:25:23.023Z,36.50
2019-03-30T11:30:30.657Z,36.40
2019-03-30T11:35:38.346Z,36.30
2019-03-30T11:40:46.118Z,36.20
2019-03-30T11:45:54.478Z,36.10
2019-03-30T11:51:02.013Z,36.00
2019-03-30T11:56:10.052Z,35.90
2019-03-30T12:01:17.641Z,35.80
2019-03-30T12:06:26.345Z,35.70
2019-03-30T12:11:34.223Z,35.60
2019-03-30T12:16:42.076Z,35.60
2019-03-30T12:21:50.125Z,35.50
2019-03-30T12:26:57.905Z,35.40
2019-03-30T12:32:06.138Z,35.30
2019-03-30T12:37:14.395Z,35.20
2019-03-30T12:42:22.453Z,35.10
2019-03-30T12:47:31.279Z,35.10
2019-03-30T12:52:39.224Z,34.90
2019-03-30T12:57:46.860Z,34.80
